Terminal Aerodrome Forecast
Issued by NWS Tulsa, OK

Home | Current Version | Previous Version | Text Only | Print | Product List | Glossary On
Versions: 1 2 3 4 5 6 7 8 9 10 11 12 13 14 15 16 17 18
000
FTUS44 KTSA 222320
TAFFSM
TAF
KFSM 222320Z 2300/2324 07005KT 4SM -SHRA OVC008
      TEMPO 2300/2304 2SM -TSRA BR BKN005CB
     FM230600 09004KT 1SM BR OVC003
     FM231800 VRB03KT 3SM -RA BR OVC007=

USA.gov is the U.S. government's official web portal to all federal, state and local government web resources and services.